Time;durP1;ratioP1;P1;durP2;ratioP2;P2;SDS_P1;SDS_P2;PMS_P1;PMS_P2;Temp;Humidity;BMP_temperature;BMP_pressure;BME280_temperature;BME280_humidity;BME280_pressure;Samples;Min_cycle;Max_cycle;Signal;HPM_P1;HPM_P2
2024/02/25 00:01:45;;;;;;;5.67;3.13;;;2.80;99.90;;;;;;5114682;28;20445;-46
2024/02/25 00:04:11;;;;;;;3.30;3.00;;;2.80;99.90;;;;;;5115245;28;20550;-47
2024/02/25 00:06:37;;;;;;;3.70;3.30;;;2.80;99.90;;;;;;5097083;28;20425;-46
2024/02/25 00:09:04;;;;;;;4.87;3.97;;;2.80;99.90;;;;;;5082128;28;20553;-46
2024/02/25 00:11:30;;;;;;;6.30;4.23;;;2.80;99.90;;;;;;5099894;28;20471;-48
2024/02/25 00:13:56;;;;;;;4.77;3.47;;;2.80;99.90;;;;;;5085104;28;20425;-46
2024/02/25 00:16:21;;;;;;;5.00;3.60;;;2.80;99.90;;;;;;5120535;28;20792;-44
2024/02/25 00:18:48;;;;;;;4.87;3.67;;;2.80;99.90;;;;;;5121202;28;20175;-47
2024/02/25 00:21:14;;;;;;;3.43;3.03;;;2.80;99.90;;;;;;5102533;28;20846;-47
2024/02/25 00:23:39;;;;;;;5.10;3.80;;;2.70;99.90;;;;;;5118455;28;20448;-44
2024/02/25 00:26:05;;;;;;;4.70;3.30;;;2.70;99.90;;;;;;5117220;28;20595;-44
2024/02/25 00:28:30;;;;;;;3.93;3.40;;;2.60;99.90;;;;;;5117161;28;20187;-48
2024/02/25 00:30:56;;;;;;;4.00;3.10;;;2.70;99.90;;;;;;5118897;28;20238;-47
2024/02/25 00:33:22;;;;;;;3.40;3.10;;;2.60;99.90;;;;;;5117924;28;20266;-47
2024/02/25 00:35:47;;;;;;;5.73;3.40;;;2.60;99.90;;;;;;5119300;28;20272;-47
2024/02/25 00:38:13;;;;;;;3.70;3.40;;;2.60;99.90;;;;;;5117553;28;20455;-46
2024/02/25 00:40:38;;;;;;;3.80;3.50;;;2.60;99.90;;;;;;5099156;28;20226;-43
2024/02/25 00:43:04;;;;;;;4.70;3.30;;;2.50;99.90;;;;;;5098766;28;20219;-44
2024/02/25 00:45:30;;;;;;;4.57;3.00;;;2.60;99.90;;;;;;5116963;28;20182;-50
2024/02/25 00:47:56;;;;;;;3.60;3.30;;;2.50;99.90;;;;;;5098392;28;20503;-47
2024/02/25 00:50:21;;;;;;;6.63;3.67;;;2.50;99.90;;;;;;5117251;28;20365;-48
2024/02/25 00:52:47;;;;;;;3.90;3.60;;;2.50;99.90;;;;;;5117677;28;20490;-44
2024/02/25 00:55:12;;;;;;;4.07;3.70;;;2.50;99.90;;;;;;5117170;28;20176;-45
2024/02/25 00:57:39;;;;;;;4.60;3.53;;;2.50;99.90;;;;;;5116421;28;20204;-44
2024/02/25 01:00:07;;;;;;;4.17;3.77;;;2.50;99.90;;;;;;5099462;28;20194;-44
2024/02/25 01:02:33;;;;;;;3.60;3.30;;;2.50;99.90;;;;;;5117776;28;20424;-44
2024/02/25 01:04:58;;;;;;;3.60;3.20;;;2.50;99.90;;;;;;5082928;28;20515;-46
2024/02/25 01:07:24;;;;;;;3.90;3.10;;;2.50;99.90;;;;;;5098215;28;20441;-46
2024/02/25 01:09:50;;;;;;;6.90;4.60;;;2.50;99.90;;;;;;5116050;28;20255;-49
2024/02/25 01:12:15;;;;;;;5.93;4.63;;;2.50;99.90;;;;;;5097761;28;20187;-47
2024/02/25 01:14:41;;;;;;;4.33;3.60;;;2.50;1.00;;;;;;5114993;28;20183;-46
2024/02/25 01:17:07;;;;;;;3.37;3.07;;;2.40;99.90;;;;;;5114945;28;20315;-47
2024/02/25 01:19:33;;;;;;;4.53;3.43;;;2.40;99.90;;;;;;5115664;28;20765;-45
2024/02/25 01:21:58;;;;;;;6.03;3.30;;;2.40;1.00;;;;;;5116995;28;20516;-45
2024/02/25 01:24:24;;;;;;;4.23;3.60;;;2.40;1.00;;;;;;5117114;28;20187;-47
2024/02/25 01:26:50;;;;;;;5.00;3.80;;;2.40;1.00;;;;;;5117526;28;20180;-48
2024/02/25 01:29:16;;;;;;;3.70;3.20;;;2.40;1.00;;;;;;5096779;28;20175;-47
2024/02/25 01:31:46;;;;;;;3.87;3.47;;;2.40;1.00;;;;;;5096918;28;20784;-48
2024/02/25 01:34:12;;;;;;;3.97;3.57;;;2.70;1.00;;;;;;5117623;28;20458;-48
2024/02/25 01:36:41;;;;;;;5.20;3.33;;;3.20;1.00;;;;;;5098343;28;20827;-46
2024/02/25 01:39:08;;;;;;;6.23;3.20;;;3.80;1.00;;;;;;5115250;28;20425;-51
2024/02/25 01:41:34;;;;;;;4.30;3.90;;;3.90;1.00;;;;;;5115087;28;20405;-45
2024/02/25 01:44:00;;;;;;;3.93;3.53;;;3.80;1.00;;;;;;5115402;28;20736;-47
2024/02/25 01:46:25;;;;;;;3.43;3.03;;;3.70;99.90;;;;;;5114207;28;20632;-47
2024/02/25 01:48:51;;;;;;;3.80;3.20;;;3.50;99.90;;;;;;5115680;28;20187;-46
2024/02/25 01:51:20;;;;;;;3.90;3.53;;;3.30;99.90;;;;;;5097737;28;20482;-46
2024/02/25 01:53:48;;;;;;;3.50;3.13;;;3.10;99.90;;;;;;5114868;28;20421;-48
2024/02/25 01:56:14;;;;;;;3.20;2.80;;;3.00;99.90;;;;;;5096552;28;20508;-45
2024/02/25 01:58:40;;;;;;;3.10;2.80;;;2.90;99.90;;;;;;5115987;28;20504;-45
2024/02/25 02:01:07;;;;;;;3.47;3.13;;;2.80;99.90;;;;;;5097792;28;20547;-46
2024/02/25 02:03:32;;;;;;;4.13;3.20;;;2.80;99.90;;;;;;5116409;28;20672;-46
2024/02/25 02:05:58;;;;;;;3.93;3.30;;;2.70;99.90;;;;;;5116647;28;20434;-46
2024/02/25 02:08:24;;;;;;;4.67;3.40;;;2.60;99.90;;;;;;5098643;28;20176;-45
2024/02/25 02:10:49;;;;;;;3.40;3.07;;;2.60;99.90;;;;;;5098621;28;20453;-47
2024/02/25 02:13:19;;;;;;;4.43;3.27;;;2.50;99.90;;;;;;5117474;28;20417;-45
2024/02/25 02:15:44;;;;;;;3.67;3.23;;;2.50;99.90;;;;;;5116951;28;20175;-46
2024/02/25 02:18:12;;;;;;;3.67;3.03;;;2.50;99.90;;;;;;5097936;28;20748;-47
2024/02/25 02:20:38;;;;;;;3.63;2.90;;;2.50;99.90;;;;;;5115930;28;20174;-47
2024/02/25 02:23:04;;;;;;;3.67;3.30;;;2.50;99.90;;;;;;5116346;28;20416;-46
2024/02/25 02:25:29;;;;;;;3.47;3.00;;;2.60;99.90;;;;;;5116866;28;20432;-44
2024/02/25 02:27:55;;;;;;;3.57;3.10;;;2.50;99.90;;;;;;5115717;28;20527;-45
2024/02/25 02:30:21;;;;;;;2.87;2.23;;;2.50;99.90;;;;;;5114402;28;20235;-45
2024/02/25 02:32:46;;;;;;;4.20;2.90;;;2.50;99.90;;;;;;5115000;28;20702;-46
2024/02/25 02:35:12;;;;;;;4.70;3.00;;;2.40;99.90;;;;;;5115329;28;20521;-47
2024/02/25 02:37:37;;;;;;;4.93;2.87;;;2.40;99.90;;;;;;5115076;28;20182;-46
2024/02/25 02:40:04;;;;;;;3.87;3.10;;;2.40;99.90;;;;;;5112730;28;20176;-48
2024/02/25 02:42:31;;;;;;;3.00;2.70;;;2.50;99.90;;;;;;5094575;28;20215;-45
2024/02/25 02:44:58;;;;;;;3.17;2.87;;;2.50;99.90;;;;;;5113972;28;20425;-47
2024/02/25 02:47:24;;;;;;;4.73;2.80;;;2.50;99.90;;;;;;5114807;28;20439;-44
2024/02/25 02:49:50;;;;;;;3.77;2.87;;;2.60;99.90;;;;;;5114679;28;20606;-47
2024/02/25 02:52:16;;;;;;;3.90;3.20;;;2.60;99.90;;;;;;5114260;28;20183;-45
2024/02/25 02:54:42;;;;;;;7.63;3.07;;;2.60;99.90;;;;;;5115507;28;20429;-47
2024/02/25 02:57:08;;;;;;;3.23;2.70;;;2.70;99.90;;;;;;5113610;28;20429;-47
2024/02/25 02:59:34;;;;;;;3.30;2.70;;;2.60;99.90;;;;;;5113850;28;20348;-45
2024/02/25 03:01:59;;;;;;;2.93;2.70;;;2.60;99.90;;;;;;5113870;28;20244;-46
2024/02/25 03:04:28;;;;;;;3.10;2.37;;;2.60;99.90;;;;;;5113352;28;20259;-46
2024/02/25 03:06:55;;;;;;;3.30;2.70;;;2.70;99.90;;;;;;5112905;28;20278;-45
2024/02/25 03:09:22;;;;;;;5.60;2.47;;;2.70;99.90;;;;;;5078325;28;20713;-46
2024/02/25 03:15:09;;;;;;;5.50;2.70;;;2.70;99.90;;;;;;5127731;28;20595;-45
2024/02/25 03:17:35;;;;;;;2.63;2.23;;;2.80;99.90;;;;;;5134828;28;20463;-46
2024/02/25 03:20:01;;;;;;;2.60;2.33;;;2.70;99.90;;;;;;5118168;28;20460;-44
2024/02/25 03:22:26;;;;;;;2.37;1.90;;;2.80;99.90;;;;;;5136134;28;20191;-46
2024/02/25 03:24:52;;;;;;;2.93;2.20;;;2.80;99.90;;;;;;5134423;28;20635;-44
2024/02/25 03:27:17;;;;;;;4.20;2.63;;;2.90;99.90;;;;;;5114174;28;20391;-45
2024/02/25 03:29:43;;;;;;;6.63;2.27;;;2.90;99.90;;;;;;5132277;28;20195;-46
2024/02/25 03:32:10;;;;;;;3.63;2.47;;;2.90;99.90;;;;;;5133242;28;20270;-46
2024/02/25 03:34:36;;;;;;;3.50;2.63;;;2.90;99.90;;;;;;5131668;28;20177;-44
2024/02/25 03:37:01;;;;;;;2.50;2.23;;;2.90;99.90;;;;;;5125666;28;20811;-44
2024/02/25 03:39:27;;;;;;;3.00;2.20;;;2.90;99.90;;;;;;5134089;28;20183;-47
2024/02/25 03:41:52;;;;;;;3.30;2.10;;;2.90;99.90;;;;;;5134869;28;20422;-44
2024/02/25 03:44:18;;;;;;;5.13;2.20;;;2.80;99.90;;;;;;5133716;28;20180;-46
2024/02/25 03:46:43;;;;;;;2.37;2.17;;;2.80;99.90;;;;;;5134133;28;20545;-47
2024/02/25 03:49:09;;;;;;;6.43;3.00;;;2.90;99.90;;;;;;5134609;28;20373;-46
2024/02/25 03:51:41;;;;;;;4.43;3.43;;;2.90;99.90;;;;;;5135928;28;20203;-44
2024/02/25 03:54:07;;;;;;;4.10;2.60;;;2.90;99.90;;;;;;5126590;27;20193;-47
2024/02/25 03:56:33;;;;;;;4.77;2.93;;;2.90;99.90;;;;;;5137190;27;20822;-46
2024/02/25 03:58:59;;;;;;;3.83;3.20;;;2.90;99.90;;;;;;5121671;27;20206;-49
2024/02/25 04:01:25;;;;;;;4.33;2.97;;;2.90;99.90;;;;;;5139496;27;20415;-46
2024/02/25 04:03:50;;;;;;;3.40;3.00;;;2.90;99.90;;;;;;5138770;27;20815;-47
2024/02/25 04:06:16;;;;;;;3.33;2.87;;;2.90;99.90;;;;;;5137292;27;20453;-47
2024/02/25 04:08:42;;;;;;;7.17;3.00;;;2.90;99.90;;;;;;5139665;27;20183;-46
2024/02/25 04:11:07;;;;;;;6.07;4.27;;;2.90;99.90;;;;;;5139115;27;20606;-44
2024/02/25 04:13:33;;;;;;;4.00;2.87;;;2.90;99.90;;;;;;5139984;27;20175;-45
2024/02/25 04:15:58;;;;;;;4.90;3.23;;;3.00;99.90;;;;;;5139547;27;20574;-47
2024/02/25 04:18:24;;;;;;;4.47;3.20;;;3.00;99.90;;;;;;5139782;27;20486;-45
2024/02/25 04:20:50;;;;;;;3.60;2.87;;;3.00;99.90;;;;;;5140346;27;20545;-48
2024/02/25 04:23:15;;;;;;;4.83;3.73;;;3.00;99.90;;;;;;5139101;27;20831;-47
2024/02/25 04:25:41;;;;;;;4.83;3.53;;;3.00;99.90;;;;;;5138997;27;20171;-47
2024/02/25 04:28:07;;;;;;;5.53;3.37;;;3.00;99.90;;;;;;5139214;27;20175;-48
2024/02/25 04:30:33;;;;;;;4.40;2.90;;;2.90;99.90;;;;;;5138849;27;20234;-44
2024/02/25 04:32:58;;;;;;;5.93;3.47;;;3.00;99.90;;;;;;5139231;27;20501;-48
2024/02/25 04:35:28;;;;;;;6.50;3.77;;;3.00;99.90;;;;;;5139299;27;20938;-44
2024/02/25 04:37:54;;;;;;;6.90;4.63;;;2.90;99.90;;;;;;5138143;27;20201;-45
2024/02/25 04:40:19;;;;;;;4.80;3.27;;;3.00;99.90;;;;;;5138901;27;20408;-46
2024/02/25 04:42:45;;;;;;;4.30;3.10;;;3.00;99.90;;;;;;5139118;27;20543;-45
2024/02/25 04:45:11;;;;;;;3.67;2.80;;;3.00;99.90;;;;;;5138243;27;20266;-48
2024/02/25 04:47:37;;;;;;;3.27;2.57;;;3.00;99.90;;;;;;5137880;27;20167;-48
2024/02/25 04:50:03;;;;;;;4.47;2.83;;;3.10;99.90;;;;;;5137432;27;20179;-46
2024/02/25 04:52:30;;;;;;;3.10;2.60;;;3.00;99.90;;;;;;5137621;27;20163;-47
2024/02/25 04:54:55;;;;;;;4.03;2.73;;;3.00;99.90;;;;;;5131372;27;20767;-47
2024/02/25 04:57:21;;;;;;;6.17;3.03;;;3.00;99.90;;;;;;5120014;27;20453;-45
2024/02/25 04:59:47;;;;;;;4.00;2.63;;;3.00;99.90;;;;;;5138237;27;20344;-49
2024/02/25 05:02:13;;;;;;;2.53;2.20;;;3.00;99.90;;;;;;5138933;27;20425;-46
2024/02/25 05:04:42;;;;;;;3.17;2.87;;;3.10;99.90;;;;;;5138283;27;20259;-45
2024/02/25 05:07:08;;;;;;;4.60;3.20;;;3.00;99.90;;;;;;5137117;27;20183;-46
2024/02/25 05:09:34;;;;;;;3.80;3.00;;;3.00;99.90;;;;;;5138688;27;20435;-47
2024/02/25 05:11:59;;;;;;;5.80;3.03;;;3.00;99.90;;;;;;5138567;27;20561;-47
2024/02/25 05:14:26;;;;;;;3.73;2.90;;;3.00;99.90;;;;;;5138781;27;20235;-45
2024/02/25 05:16:51;;;;;;;3.93;2.70;;;3.10;98.10;;;;;;5137698;27;20198;-45
2024/02/25 05:19:17;;;;;;;3.07;2.53;;;3.10;49.00;;;;;;5118566;27;20894;-45
2024/02/25 05:21:44;;;;;;;4.30;2.47;;;3.10;36.90;;;;;;5137452;27;20202;-47
2024/02/25 05:24:10;;;;;;;3.27;2.70;;;3.10;24.30;;;;;;5137979;27;20457;-47
2024/02/25 05:26:36;;;;;;;3.20;2.73;;;3.00;45.00;;;;;;5138186;27;20507;-46
2024/02/25 05:29:02;;;;;;;2.60;2.40;;;3.00;49.80;;;;;;5137870;27;20628;-48
2024/02/25 05:31:27;;;;;;;5.63;3.50;;;3.00;59.50;;;;;;5114590;28;20203;-47
2024/02/25 05:33:53;;;;;;;3.27;2.97;;;2.90;87.30;;;;;;5116415;28;20417;-48
2024/02/25 05:36:22;;;;;;;2.57;2.37;;;2.90;99.90;;;;;;5115346;28;20179;-45
2024/02/25 05:38:48;;;;;;;3.07;2.60;;;2.80;99.90;;;;;;5115773;28;20196;-46
2024/02/25 05:41:14;;;;;;;3.03;2.60;;;2.80;99.90;;;;;;5116507;28;20500;-46
2024/02/25 05:43:41;;;;;;;2.93;2.60;;;2.70;99.90;;;;;;5115842;28;20417;-45
2024/02/25 05:46:06;;;;;;;3.03;2.43;;;2.70;99.90;;;;;;5115614;28;20225;-45
2024/02/25 05:48:32;;;;;;;3.40;2.67;;;2.60;99.90;;;;;;5114477;28;20874;-47
2024/02/25 05:50:58;;;;;;;3.23;2.93;;;2.60;99.90;;;;;;5113635;28;20215;-45
2024/02/25 05:53:24;;;;;;;3.97;3.27;;;2.60;99.90;;;;;;5116200;28;20721;-44
2024/02/25 05:55:49;;;;;;;3.10;2.80;;;2.60;99.90;;;;;;5116588;28;20188;-46
2024/02/25 05:58:15;;;;;;;3.33;3.00;;;2.50;99.90;;;;;;5115680;28;20168;-47
2024/02/25 06:00:42;;;;;;;3.30;3.00;;;2.40;99.90;;;;;;5117748;28;20522;-48
2024/02/25 06:03:08;;;;;;;4.37;3.30;;;2.40;99.90;;;;;;5098465;28;20184;-47
2024/02/25 06:05:33;;;;;;;4.13;3.17;;;2.40;99.90;;;;;;5114647;28;20418;-46
2024/02/25 06:08:00;;;;;;;6.23;3.70;;;2.30;99.90;;;;;;5115817;28;20461;-48
2024/02/25 06:10:26;;;;;;;4.90;3.03;;;2.30;99.90;;;;;;5114853;28;20187;-44
2024/02/25 06:12:52;;;;;;;4.13;3.60;;;2.20;99.90;;;;;;5115502;28;20490;-48
2024/02/25 06:15:19;;;;;;;4.73;3.87;;;2.20;99.90;;;;;;5114679;28;20634;-44
2024/02/25 06:17:45;;;;;;;4.87;4.40;;;2.10;99.90;;;;;;5113694;28;20422;-45
2024/02/25 06:20:11;;;;;;;4.43;3.13;;;2.00;99.90;;;;;;5097946;28;20440;-46
2024/02/25 06:22:40;;;;;;;4.70;2.90;;;2.00;99.90;;;;;;5116453;28;20427;-46
2024/02/25 06:25:07;;;;;;;4.00;3.60;;;1.90;99.90;;;;;;5116918;28;20527;-47
2024/02/25 06:27:37;;;;;;;3.20;2.90;;;1.90;99.90;;;;;;5116528;28;20489;-44
2024/02/25 06:30:04;;;;;;;4.53;3.17;;;1.90;99.90;;;;;;5113617;28;20858;-44
2024/02/25 06:32:31;;;;;;;7.63;3.80;;;1.90;99.90;;;;;;5115108;28;20502;-46
2024/02/25 06:34:59;;;;;;;3.80;3.20;;;1.90;99.90;;;;;;5115530;28;20417;-44
2024/02/25 06:37:29;;;;;;;8.50;7.90;;;2.00;99.90;;;;;;5114721;28;20417;-45
2024/02/25 06:39:55;;;;;;;6.17;5.67;;;2.00;99.90;;;;;;5115780;28;20405;-44
2024/02/25 06:42:21;;;;;;;5.00;4.60;;;2.20;99.90;;;;;;5115358;28;20425;-47
2024/02/25 06:44:46;;;;;;;5.30;4.90;;;2.30;99.90;;;;;;5114820;28;20513;-46
2024/02/25 06:47:12;;;;;;;3.80;3.43;;;2.50;99.90;;;;;;5114591;28;20187;-44
2024/02/25 06:49:40;;;;;;;4.17;3.50;;;2.60;99.90;;;;;;5113557;28;20179;-44
2024/02/25 06:52:06;;;;;;;3.10;2.80;;;2.80;99.90;;;;;;5113244;28;20195;-45
2024/02/25 06:54:31;;;;;;;3.33;3.03;;;3.00;99.90;;;;;;5112256;28;20516;-46
2024/02/25 06:56:57;;;;;;;3.50;3.20;;;3.20;99.90;;;;;;5113959;28;20523;-46
2024/02/25 06:59:23;;;;;;;3.03;2.70;;;3.40;1.00;;;;;;5115183;28;20468;-45
2024/02/25 07:01:49;;;;;;;6.00;3.40;;;3.50;1.00;;;;;;5115293;28;20482;-47
2024/02/25 07:04:15;;;;;;;2.97;2.70;;;3.70;1.00;;;;;;5115673;28;20266;-45
2024/02/25 07:06:41;;;;;;;3.20;2.50;;;4.00;1.00;;;;;;5116145;28;20198;-47
2024/02/25 07:09:07;;;;;;;3.13;2.83;;;4.20;1.00;;;;;;5116377;28;20244;-47
2024/02/25 07:11:33;;;;;;;6.60;3.53;;;4.50;2.30;;;;;;5097819;28;20576;-44
2024/02/25 07:13:59;;;;;;;3.87;2.80;;;4.60;1.00;;;;;;5116343;28;20770;-46
2024/02/25 07:16:25;;;;;;;3.37;2.83;;;4.80;1.00;;;;;;5116052;28;20402;-47
2024/02/25 07:18:51;;;;;;;2.70;2.50;;;4.90;99.90;;;;;;5081836;28;20172;-45
2024/02/25 07:21:16;;;;;;;3.27;2.93;;;5.00;1.00;;;;;;5116075;28;20176;-47
2024/02/25 07:23:43;;;;;;;3.23;2.70;;;4.90;1.00;;;;;;5106785;28;20882;-46
2024/02/25 07:26:11;;;;;;;3.10;2.80;;;4.60;99.90;;;;;;5097427;28;20213;-52
2024/02/25 07:28:40;;;;;;;3.90;2.67;;;4.50;1.00;;;;;;5117028;28;20398;-46
2024/02/25 07:31:15;;;;;;;2.87;2.57;;;4.50;1.00;;;;;;5120437;28;20468;-50
2024/02/25 07:33:42;;;;;;;2.73;2.23;;;4.40;1.00;;;;;;5119602;28;20660;-44
2024/02/25 07:36:15;;;;;;;4.20;2.73;;;4.40;1.00;;;;;;5102372;28;20422;-45
2024/02/25 07:38:41;;;;;;;3.10;2.80;;;4.40;1.00;;;;;;5102526;28;20763;-46
2024/02/25 07:41:07;;;;;;;3.10;2.63;;;4.40;4.40;;;;;;5120243;28;20525;-45
2024/02/25 07:43:37;;;;;;;2.90;2.60;;;4.50;1.00;;;;;;5133651;27;20179;-47
2024/02/25 07:46:03;;;;;;;2.67;2.37;;;4.50;1.00;;;;;;5140948;27;20678;-47
2024/02/25 07:48:29;;;;;;;3.10;2.80;;;4.60;1.00;;;;;;5141280;27;20748;-46
2024/02/25 07:50:55;;;;;;;2.87;2.57;;;4.50;1.00;;;;;;5141206;27;20464;-45
2024/02/25 07:53:20;;;;;;;3.53;2.43;;;4.60;1.00;;;;;;5141339;27;20171;-45
2024/02/25 07:55:46;;;;;;;5.07;2.77;;;4.60;1.00;;;;;;5138936;27;20247;-45
2024/02/25 07:58:12;;;;;;;2.27;2.07;;;4.70;1.00;;;;;;5137241;27;20236;-47
2024/02/25 08:00:37;;;;;;;3.20;2.70;;;4.70;1.00;;;;;;5119506;27;20215;-46
2024/02/25 08:03:03;;;;;;;3.30;2.20;;;4.80;1.00;;;;;;5137686;27;20236;-46
2024/02/25 08:05:29;;;;;;;2.83;2.50;;;4.90;1.00;;;;;;5101134;27;20171;-45
2024/02/25 08:07:55;;;;;;;2.33;2.10;;;5.00;1.00;;;;;;5136339;27;20565;-46
2024/02/25 08:10:20;;;;;;;3.40;2.20;;;5.10;99.90;;;;;;5136622;27;20607;-45
2024/02/25 08:12:47;;;;;;;3.70;2.93;;;5.30;63.10;;;;;;5138639;27;20209;-46
2024/02/25 08:15:16;;;;;;;2.63;2.27;;;5.70;99.90;;;;;;5116083;28;20239;-46
2024/02/25 08:17:41;;;;;;;3.23;2.90;;;5.90;99.90;;;;;;5118586;28;20406;-44
2024/02/25 08:20:07;;;;;;;4.00;2.40;;;6.10;1.00;;;;;;5118216;28;21033;-45
2024/02/25 08:22:36;;;;;;;4.30;2.80;;;6.10;99.90;;;;;;5120062;28;20429;-46
2024/02/25 08:25:02;;;;;;;4.03;2.50;;;6.10;99.90;;;;;;5100287;28;20713;-43
2024/02/25 08:27:32;;;;;;;2.83;2.53;;;6.00;1.00;;;;;;5117850;28;20421;-49
2024/02/25 08:30:05;;;;;;;4.63;3.23;;;5.90;1.00;;;;;;5116800;28;20310;-43
2024/02/25 08:32:31;;;;;;;2.67;2.47;;;5.90;1.00;;;;;;5115221;28;20413;-43
2024/02/25 08:34:57;;;;;;;3.10;2.80;;;5.90;99.90;;;;;;5135853;27;20409;-44
2024/02/25 08:37:27;;;;;;;3.50;2.23;;;6.10;1.00;;;;;;5135152;27;20435;-46
2024/02/25 08:39:53;;;;;;;3.67;3.03;;;6.10;1.00;;;;;;5118892;27;20182;-45
2024/02/25 08:42:19;;;;;;;4.33;2.63;;;6.10;1.00;;;;;;5138112;27;20451;-44
2024/02/25 08:44:45;;;;;;;3.27;2.90;;;6.20;99.90;;;;;;5138418;27;20843;-45
2024/02/25 08:47:11;;;;;;;2.70;2.30;;;6.20;99.90;;;;;;5138707;27;20409;-48
2024/02/25 08:49:40;;;;;;;2.77;2.13;;;6.50;10.30;;;;;;5140028;27;20432;-46
2024/02/25 08:52:05;;;;;;;2.63;2.30;;;6.50;99.90;;;;;;5139716;27;20207;-45
2024/02/25 08:54:31;;;;;;;3.63;1.80;;;6.60;1.00;;;;;;5137850;27;20893;-49
2024/02/25 08:56:57;;;;;;;2.90;2.20;;;6.70;99.90;;;;;;5136187;27;20423;-45
2024/02/25 08:59:23;;;;;;;2.57;2.30;;;6.90;1.00;;;;;;5136166;27;20409;-44
2024/02/25 09:01:49;;;;;;;2.63;2.00;;;7.10;1.00;;;;;;5134722;27;20621;-43
2024/02/25 09:04:15;;;;;;;2.77;2.30;;;7.30;99.90;;;;;;5132375;27;20436;-44
2024/02/25 09:06:40;;;;;;;2.63;2.03;;;7.60;1.00;;;;;;5136276;27;20175;-50
2024/02/25 09:09:07;;;;;;;4.03;1.93;;;8.20;99.90;;;;;;5136444;27;20434;-49
2024/02/25 09:11:32;;;;;;;2.30;2.10;;;9.70;99.90;;;;;;5137251;27;20230;-46
2024/02/25 09:13:58;;;;;;;3.10;2.47;;;10.10;1.00;;;;;;5138152;27;20888;-46
2024/02/25 09:16:24;;;;;;;2.57;2.20;;;10.00;99.90;;;;;;5120228;27;20179;-47
2024/02/25 09:18:49;;;;;;;3.53;2.00;;;9.90;50.20;;;;;;5133808;27;20274;-48
2024/02/25 09:21:15;;;;;;;2.13;1.93;;;10.10;10.30;;;;;;5136189;27;20441;-48
2024/02/25 09:23:42;;;;;;;1.70;1.53;;;10.50;1.00;;;;;;5118907;27;20278;-45
2024/02/25 09:26:07;;;;;;;3.10;2.27;;;10.80;1.00;;;;;;5137578;27;20476;-45
2024/02/25 09:28:34;;;;;;;2.37;2.03;;;11.70;1.00;;;;;;5101961;27;20416;-45
2024/02/25 09:30:59;;;;;;;2.00;1.80;;;12.00;1.00;;;;;;5135689;27;20464;-46
2024/02/25 09:33:29;;;;;;;1.87;1.70;;;12.90;1.00;;;;;;5136072;27;20412;-46
2024/02/25 09:35:58;;;;;;;2.50;1.63;;;14.40;1.00;;;;;;5135792;27;20393;-47
2024/02/25 09:38:27;;;;;;;1.60;1.33;;;14.20;1.00;;;;;;5137078;27;20541;-45
2024/02/25 09:41:03;;;;;;;3.30;2.00;;;13.60;1.00;;;;;;5137055;27;20429;-46
2024/02/25 09:43:28;;;;;;;4.30;1.80;;;13.00;1.00;;;;;;5136430;27;20420;-47
2024/02/25 09:45:57;;;;;;;1.83;1.53;;;13.00;1.00;;;;;;5136442;27;20437;-48
2024/02/25 09:48:25;;;;;;;1.90;1.60;;;13.70;1.00;;;;;;5138170;27;20171;-45
2024/02/25 09:50:52;;;;;;;1.60;1.33;;;14.30;1.00;;;;;;5138312;27;20468;-47
2024/02/25 09:53:19;;;;;;;2.00;1.80;;;15.10;1.00;;;;;;5137688;27;20407;-46
2024/02/25 09:55:49;;;;;;;3.70;1.83;;;14.80;1.00;;;;;;5136525;27;20443;-45
2024/02/25 09:58:15;;;;;;;2.13;1.27;;;14.90;1.00;;;;;;5136441;27;20424;-47
2024/02/25 10:00:41;;;;;;;1.70;1.20;;;15.30;1.00;;;;;;5118697;27;20421;-46
2024/02/25 10:03:07;;;;;;;2.70;1.23;;;15.30;1.00;;;;;;5137070;27;20428;-47
2024/02/25 10:05:34;;;;;;;1.70;1.23;;;14.80;1.00;;;;;;5135720;27;20417;-44
2024/02/25 10:08:04;;;;;;;3.70;1.30;;;14.60;1.00;;;;;;5135304;27;20439;-47
2024/02/25 10:10:33;;;;;;;1.47;0.97;;;14.30;1.00;;;;;;5116135;27;20472;-46
2024/02/25 10:13:05;;;;;;;1.90;1.00;;;14.60;1.00;;;;;;5116514;27;20594;-45
2024/02/25 10:15:32;;;;;;;1.87;1.17;;;15.10;1.00;;;;;;5114898;27;20760;-46
2024/02/25 10:17:58;;;;;;;1.10;0.90;;;14.90;1.00;;;;;;5096675;28;20450;-46
2024/02/25 10:20:25;;;;;;;2.43;1.10;;;14.40;1.00;;;;;;5096776;28;20425;-50
2024/02/25 10:23:10;;;;;;;1.10;0.60;;;13.90;1.00;;;;;;5096690;28;20199;-50
2024/02/25 10:25:38;;;;;;;1.00;0.60;;;13.90;1.00;;;;;;5097500;28;20433;-48
2024/02/25 10:28:16;;;;;;;2.47;0.80;;;14.20;1.00;;;;;;5114806;28;20414;-47
2024/02/25 10:31:01;;;;;;;1.77;0.70;;;15.00;1.00;;;;;;5116480;28;20735;-45
2024/02/25 10:33:27;;;;;;;1.07;0.73;;;15.20;1.00;;;;;;5095174;28;20731;-46
2024/02/25 10:35:53;;;;;;;0.97;0.60;;;14.50;1.00;;;;;;5113462;28;20421;-43
2024/02/25 10:38:20;;;;;;;1.30;0.90;;;14.50;1.00;;;;;;5114839;28;20613;-46
2024/02/25 10:40:47;;;;;;;1.77;0.73;;;14.70;1.00;;;;;;5095797;28;20735;-46
2024/02/25 10:43:14;;;;;;;1.40;0.90;;;15.00;1.00;;;;;;5096481;28;20612;-45
2024/02/25 10:45:44;;;;;;;0.90;0.53;;;15.00;1.00;;;;;;5112753;28;20433;-47
2024/02/25 10:48:11;;;;;;;2.20;0.90;;;15.10;1.00;;;;;;5078420;28;20543;-44
2024/02/25 10:50:38;;;;;;;1.30;0.70;;;15.10;1.00;;;;;;5113456;28;20491;-48
2024/02/25 10:53:06;;;;;;;1.00;0.60;;;15.70;1.00;;;;;;5113689;28;20402;-44
2024/02/25 10:55:32;;;;;;;1.73;0.80;;;15.90;1.00;;;;;;5113880;28;20421;-47
2024/02/25 10:57:59;;;;;;;1.50;1.00;;;15.70;1.00;;;;;;5096692;28;20443;-45
2024/02/25 11:00:24;;;;;;;1.27;0.80;;;15.80;1.00;;;;;;5111085;28;20422;-47
2024/02/25 11:02:51;;;;;;;1.50;0.83;;;16.00;1.00;;;;;;5093835;28;20437;-48
2024/02/25 11:05:17;;;;;;;2.33;1.13;;;16.50;1.00;;;;;;5117135;28;20175;-45
2024/02/25 11:07:43;;;;;;;1.87;1.20;;;16.30;1.00;;;;;;5099737;28;20429;-45
2024/02/25 11:10:19;;;;;;;1.93;1.37;;;17.00;1.00;;;;;;5116618;28;20435;-46
2024/02/25 11:12:45;;;;;;;1.43;1.10;;;17.30;1.00;;;;;;5117688;28;20420;-46
2024/02/25 11:15:21;;;;;;;1.20;0.90;;;17.60;1.00;;;;;;5124226;27;20476;-46
2024/02/25 11:17:51;;;;;;;1.67;1.27;;;18.30;1.00;;;;;;5138261;27;20175;-44
2024/02/25 11:20:27;;;;;;;1.53;1.20;;;19.10;1.00;;;;;;5136571;27;20668;-46
2024/02/25 11:22:52;;;;;;;2.90;1.23;;;20.50;1.00;;;;;;5121728;27;20430;-46
2024/02/25 11:25:30;;;;;;;1.90;1.20;;;20.30;1.00;;;;;;5139761;27;20417;-46
2024/02/25 11:27:57;;;;;;;3.87;1.10;;;21.30;1.00;;;;;;5138170;27;20210;-46
2024/02/25 11:30:33;;;;;;;1.40;0.90;;;20.50;1.00;;;;;;5137943;27;20714;-47
2024/02/25 11:32:58;;;;;;;1.50;1.10;;;20.10;1.00;;;;;;5135736;27;20511;-45
2024/02/25 11:35:24;;;;;;;1.20;1.07;;;19.40;1.00;;;;;;5137751;27;20798;-43
2024/02/25 11:37:50;;;;;;;2.27;1.13;;;18.60;1.00;;;;;;5118184;27;20183;-44
2024/02/25 11:40:16;;;;;;;1.87;1.30;;;19.00;1.00;;;;;;5136496;27;20701;-44
2024/02/25 11:42:42;;;;;;;1.67;1.07;;;18.80;1.00;;;;;;5136278;27;20175;-45
2024/02/25 11:45:10;;;;;;;2.60;1.10;;;18.40;1.00;;;;;;5137166;27;20845;-47
2024/02/25 11:47:36;;;;;;;2.50;1.23;;;19.60;1.00;;;;;;5136170;27;20508;-47
2024/02/25 11:50:02;;;;;;;2.00;1.60;;;20.20;1.00;;;;;;5136721;27;20427;-43
2024/02/25 11:52:28;;;;;;;2.00;1.40;;;20.70;1.00;;;;;;5137338;27;20721;-47
2024/02/25 11:54:54;;;;;;;2.40;1.80;;;21.20;1.00;;;;;;5119210;27;20523;-47
2024/02/25 11:57:19;;;;;;;2.20;1.50;;;20.90;1.00;;;;;;5137469;27;20730;-45
2024/02/25 11:59:45;;;;;;;2.53;1.90;;;21.50;1.00;;;;;;5137905;27;20181;-43
2024/02/25 12:02:11;;;;;;;1.63;1.47;;;22.70;1.00;;;;;;5138930;27;20437;-47
2024/02/25 12:04:37;;;;;;;1.53;1.13;;;23.40;1.00;;;;;;5138875;27;20270;-48
2024/02/25 12:07:04;;;;;;;1.60;1.27;;;23.70;1.00;;;;;;5138749;27;20555;-46
2024/02/25 12:09:30;;;;;;;1.20;0.70;;;23.90;1.00;;;;;;5136495;27;20481;-44
2024/02/25 12:11:56;;;;;;;1.37;0.90;;;23.80;1.00;;;;;;5135596;27;20739;-46
2024/02/25 12:14:22;;;;;;;1.30;0.80;;;22.70;1.00;;;;;;5134684;27;20950;-47
2024/02/25 12:16:49;;;;;;;1.10;0.60;;;20.90;1.00;;;;;;5139285;27;20814;-46
2024/02/25 12:19:18;;;;;;;1.23;0.80;;;20.30;1.00;;;;;;5118770;27;20430;-47
2024/02/25 12:21:48;;;;;;;1.40;0.70;;;20.00;1.00;;;;;;5136824;27;20476;-45
2024/02/25 12:24:14;;;;;;;2.20;0.70;;;;;;;;;;5135681;27;20755;-48
2024/02/25 12:26:54;;;;;;;3.90;0.80;;;20.50;1.00;;;;;;5134628;27;20409;-49
2024/02/25 12:29:23;;;;;;;1.43;0.70;;;19.80;1.00;;;;;;5137239;27;20405;-46
2024/02/25 12:31:49;;;;;;;1.17;0.60;;;20.40;1.00;;;;;;5118610;27;20470;-46
2024/02/25 12:34:16;;;;;;;1.27;0.77;;;20.70;1.00;;;;;;5135686;27;20421;-49
2024/02/25 12:36:44;;;;;;;1.50;0.73;;;;;;;;;;5137042;27;20172;-47
2024/02/25 12:39:12;;;;;;;2.93;0.67;;;;;;;;;;5137524;27;20420;-43
2024/02/25 12:41:39;;;;;;;1.10;0.53;;;;;;;;;;5118654;27;20810;-44
2024/02/25 12:44:07;;;;;;;1.70;0.90;;;;;;;;;;5117823;27;20491;-44
2024/02/25 12:46:34;;;;;;;1.10;0.70;;;22.40;1.00;;;;;;5135082;27;20421;-43
2024/02/25 12:49:14;;;;;;;1.37;0.67;;;23.20;1.00;;;;;;5135068;27;20842;-46
2024/02/25 12:51:41;;;;;;;1.20;0.80;;;24.10;1.00;;;;;;5100054;27;20753;-43
2024/02/25 12:54:07;;;;;;;1.30;0.90;;;24.40;1.00;;;;;;5132824;27;20826;-47
2024/02/25 12:56:42;;;;;;;2.67;1.13;;;;;;;;;;5116537;27;20477;-44
2024/02/25 12:59:10;;;;;;;1.13;0.77;;;;;;;;;;5134576;27;20258;-44
2024/02/25 13:01:36;;;;;;;1.53;0.70;;;23.00;1.00;;;;;;5132060;27;20429;-45